createdAt,value
2023-05-18T00:00:11.019Z,95820.94
2023-05-18T00:03:55.065Z,95830.19
2023-05-18T00:07:37.972Z,95807.09
2023-05-18T00:11:22.752Z,95810.66
2023-05-18T00:15:06.422Z,95820.28
2023-05-18T00:18:49.170Z,95808.06
2023-05-18T00:22:32.235Z,95822.19
2023-05-18T00:26:14.920Z,95806.16
2023-05-18T00:29:59.339Z,95811.13
2023-05-18T00:33:42.024Z,95810.69
2023-05-18T00:37:24.685Z,95802.38
2023-05-18T00:41:07.494Z,95798.03
2023-05-18T00:44:50.404Z,95801.66
2023-05-18T00:48:34.516Z,95803.63
2023-05-18T00:52:17.400Z,95802.00
2023-05-18T00:56:00.597Z,95806.34
2023-05-18T00:59:43.791Z,95805.09
2023-05-18T01:03:30.182Z,95798.59
2023-05-18T01:07:16.642Z,95794.88
2023-05-18T01:11:03.727Z,95797.03
2023-05-18T01:14:51.060Z,95791.16
2023-05-18T01:18:38.227Z,95798.41
2023-05-18T01:22:37.669Z,95797.75
2023-05-18T01:26:29.763Z,95787.34
2023-05-18T01:30:13.691Z,95797.56
2023-05-18T01:33:56.416Z,95795.66
2023-05-18T01:37:39.156Z,95794.38
2023-05-18T01:41:24.341Z,95786.88
2023-05-18T01:45:10.673Z,95787.06
2023-05-18T01:48:57.720Z,95783.63
2023-05-18T01:52:44.060Z,95786.59
2023-05-18T01:56:28.767Z,95783.31
2023-05-18T02:00:13.353Z,95781.69
2023-05-18T02:03:56.327Z,95778.44
2023-05-18T02:07:39.422Z,95773.91
2023-05-18T02:11:23.924Z,95780.13
2023-05-18T02:15:09.286Z,95779.69
2023-05-18T02:18:53.345Z,95772.97
2023-05-18T02:22:36.396Z,95764.66
2023-05-18T02:26:19.067Z,95764.03
2023-05-18T02:30:04.492Z,95766.81
2023-05-18T02:33:48.585Z,95773.19
2023-05-18T02:37:39.259Z,95769.13
2023-05-18T02:41:22.832Z,95765.88
2023-05-18T02:45:06.386Z,95761.00
2023-05-18T02:48:50.471Z,95758.72
2023-05-18T02:52:34.058Z,95753.66
2023-05-18T02:56:19.115Z,95751.22
2023-05-18T03:00:01.883Z,95753.22
2023-05-18T03:03:44.662Z,95753.22
2023-05-18T03:07:28.736Z,95753.22
2023-05-18T03:11:11.420Z,95752.84
2023-05-18T03:14:54.143Z,95747.63
2023-05-18T03:18:36.972Z,95750.22
2023-05-18T03:22:19.875Z,95744.38
2023-05-18T03:26:04.003Z,95749.13
2023-05-18T03:29:46.841Z,95753.56
2023-05-18T03:33:29.612Z,95747.50
2023-05-18T03:37:12.410Z,95755.53
2023-05-18T03:40:56.286Z,95755.53
2023-05-18T03:44:40.465Z,95752.28
2023-05-18T03:48:23.781Z,95761.94
2023-05-18T03:52:07.238Z,95758.50
2023-05-18T03:55:50.241Z,95760.50
2023-05-18T03:59:32.943Z,95753.16
2023-05-18T04:03:17.164Z,95774.63
2023-05-18T04:07:02.386Z,95765.78
2023-05-18T04:10:45.581Z,95764.63
2023-05-18T04:14:28.312Z,95756.94
2023-05-18T04:18:11.384Z,95759.38
2023-05-18T04:21:55.490Z,95756.59
2023-05-18T04:25:39.391Z,95777.19
2023-05-18T04:29:24.217Z,95761.13
2023-05-18T04:33:07.591Z,95766.38
2023-05-18T04:36:50.363Z,95764.22
2023-05-18T04:40:38.059Z,95771.72
2023-05-18T04:44:20.920Z,95784.75
2023-05-18T04:48:03.654Z,95782.75
2023-05-18T04:51:46.958Z,95782.88
2023-05-18T04:55:31.380Z,95790.03
2023-05-18T04:59:16.089Z,95785.09
2023-05-18T05:02:59.696Z,95788.81
2023-05-18T05:06:42.565Z,95794.16
2023-05-18T05:10:25.390Z,95786.59
2023-05-18T05:14:08.310Z,95783.09
2023-05-18T05:17:52.438Z,95781.56
2023-05-18T05:21:35.170Z,95787.69
2023-05-18T05:25:17.861Z,95788.97
2023-05-18T05:29:00.683Z,95791.22
2023-05-18T05:32:43.483Z,95786.63
2023-05-18T05:36:27.704Z,95784.75
2023-05-18T05:40:13.902Z,95778.97
2023-05-18T05:43:56.977Z,95789.34
2023-05-18T05:47:39.742Z,95790.72
2023-05-18T05:51:22.500Z,95788.44
2023-05-18T05:55:07.446Z,95781.44
2023-05-18T05:58:50.136Z,95791.66
2023-05-18T06:02:34.297Z,95776.66
2023-05-18T06:06:17.473Z,95780.16
2023-05-18T06:10:00.224Z,95785.66
2023-05-18T06:13:44.265Z,95787.34
2023-05-18T06:17:27.457Z,95783.44
2023-05-18T06:21:10.234Z,95789.19
2023-05-18T06:24:52.953Z,95790.06
2023-05-18T06:28:35.674Z,95795.50
2023-05-18T06:32:20.182Z,95789.63
2023-05-18T06:36:03.024Z,95797.13
2023-05-18T06:39:45.883Z,95799.22
2023-05-18T06:43:28.732Z,95799.47
2023-05-18T06:47:11.631Z,95795.72
2023-05-18T06:50:56.220Z,95789.47
2023-05-18T06:54:38.957Z,95789.13
2023-05-18T06:58:21.929Z,95799.50
2023-05-18T07:02:04.779Z,95795.97
2023-05-18T07:05:47.586Z,95805.59
2023-05-18T07:09:31.727Z,95804.47
2023-05-18T07:13:14.666Z,95801.69
2023-05-18T07:16:57.384Z,95791.63
2023-05-18T07:20:40.100Z,95791.25
2023-05-18T07:24:22.825Z,95796.97
2023-05-18T07:28:07.058Z,95795.00
2023-05-18T07:31:49.859Z,95791.84
2023-05-18T07:35:32.786Z,95792.09
2023-05-18T07:39:19.490Z,95790.53
2023-05-18T07:43:02.496Z,95791.59
2023-05-18T07:46:46.830Z,95797.09
2023-05-18T07:50:30.489Z,95799.31
2023-05-18T07:54:13.679Z,95794.88
2023-05-18T07:57:56.398Z,95796.28
2023-05-18T08:01:41.279Z,95784.16
2023-05-18T08:05:25.390Z,95777.53
2023-05-18T08:09:08.123Z,95789.75
2023-05-18T08:12:51.621Z,95786.88
2023-05-18T08:16:37.289Z,95797.41
2023-05-18T08:20:20.357Z,95790.13
2023-05-18T08:24:05.635Z,95797.00
2023-05-18T08:27:48.339Z,95794.38
2023-05-18T08:31:31.045Z,95789.97
2023-05-18T08:35:13.761Z,95791.00
2023-05-18T08:38:56.552Z,95790.19
2023-05-18T08:42:50.556Z,95780.66
2023-05-18T08:46:35.284Z,95791.81
2023-05-18T08:50:19.291Z,95791.00
2023-05-18T08:54:02.519Z,95792.47
2023-05-18T08:57:50.047Z,95783.31
2023-05-18T09:01:33.120Z,95786.97
2023-05-18T09:05:17.094Z,95785.31
2023-05-18T09:09:04.363Z,95774.56
2023-05-18T09:12:48.547Z,95788.59
2023-05-18T09:16:31.497Z,95778.84
2023-05-18T09:20:14.464Z,95784.94
2023-05-18T09:23:57.197Z,95785.13
2023-05-18T09:27:40.016Z,95780.47
2023-05-18T09:31:26.715Z,95774.34
2023-05-18T09:35:10.576Z,95788.97
2023-05-18T09:38:53.653Z,95799.91
2023-05-18T09:42:39.666Z,95788.13
2023-05-18T09:46:23.863Z,95800.50
2023-05-18T09:50:08.004Z,95793.81
2023-05-18T09:53:54.681Z,95789.75
2023-05-18T09:57:40.847Z,95793.59
2023-05-18T10:01:24.967Z,95801.53
2023-05-18T10:05:09.357Z,95797.88
2023-05-18T10:08:52.044Z,95792.59
2023-05-18T10:12:35.227Z,95797.88
2023-05-18T10:16:18.019Z,95797.91
2023-05-18T10:20:02.468Z,95793.84
2023-05-18T10:23:46.544Z,95796.66
2023-05-18T10:27:29.346Z,95796.19
2023-05-18T10:31:12.205Z,95793.72
2023-05-18T10:34:56.199Z,95798.97
2023-05-18T10:38:40.711Z,95790.03
2023-05-18T10:42:23.734Z,95775.41
2023-05-18T10:46:08.536Z,95783.72
2023-05-18T10:49:52.530Z,95791.66
2023-05-18T10:53:36.583Z,95785.59
2023-05-18T10:57:21.916Z,95788.03
2023-05-18T11:01:07.494Z,95786.38
2023-05-18T11:04:52.582Z,95785.13
2023-05-18T11:08:43.819Z,95779.81
2023-05-18T11:12:28.085Z,95781.06
2023-05-18T11:16:10.924Z,95790.47
2023-05-18T11:20:16.033Z,95787.44
2023-05-18T11:24:20.250Z,95789.66
2023-05-18T11:28:06.297Z,95792.50
2023-05-18T11:31:50.316Z,95789.69
2023-05-18T11:35:34.758Z,95796.59
2023-05-18T11:39:25.020Z,95786.00
2023-05-18T11:43:09.891Z,95789.84
2023-05-18T11:46:54.879Z,95793.28
2023-05-18T11:50:37.820Z,95770.53
2023-05-18T11:54:20.950Z,95803.06
2023-05-18T11:58:03.680Z,95794.94
2023-05-18T12:01:48.188Z,95785.97
2023-05-18T12:05:31.921Z,95780.63
2023-05-18T12:09:15.599Z,95781.81
2023-05-18T12:12:58.421Z,95778.91
2023-05-18T12:16:41.616Z,95780.69
2023-05-18T12:20:26.729Z,95780.03
2023-05-18T12:24:09.978Z,95786.66
2023-05-18T12:27:54.096Z,95788.81
2023-05-18T12:31:41.121Z,95782.63
2023-05-18T12:35:25.653Z,95775.63
2023-05-18T12:39:08.957Z,95781.69
2023-05-18T12:42:54.956Z,95775.59
2023-05-18T12:46:37.794Z,95782.50
2023-05-18T12:50:21.205Z,95771.50
2023-05-18T12:54:06.260Z,95761.38
2023-05-18T12:58:00.550Z,95766.25
2023-05-18T13:01:43.982Z,95767.81
2023-05-18T13:05:26.717Z,95761.66
2023-05-18T13:09:13.212Z,95760.91
2023-05-18T13:13:01.366Z,95759.88
2023-05-18T13:16:46.548Z,95758.41
2023-05-18T13:20:36.213Z,95760.41
2023-05-18T13:24:20.879Z,95747.31
2023-05-18T13:28:03.861Z,95755.91
2023-05-18T13:31:46.667Z,95755.22
2023-05-18T13:35:29.738Z,95742.28
2023-05-18T13:39:13.338Z,95743.41
2023-05-18T13:42:57.700Z,95748.75
2023-05-18T13:46:40.765Z,95733.88
2023-05-18T13:50:26.011Z,95736.41
2023-05-18T13:54:09.012Z,95728.81
2023-05-18T13:57:51.833Z,95728.81
2023-05-18T14:01:42.319Z,95724.88
2023-05-18T14:05:25.256Z,95719.22
2023-05-18T14:09:08.406Z,95715.03
2023-05-18T14:12:51.143Z,95719.75
2023-05-18T14:16:36.667Z,95717.53
2023-05-18T14:20:19.802Z,95717.25
2023-05-18T14:24:03.895Z,95719.59
2023-05-18T14:27:46.629Z,95715.56
2023-05-18T14:31:29.486Z,95722.78
2023-05-18T14:35:13.722Z,95719.19
2023-05-18T14:38:56.587Z,95718.00
2023-05-18T14:42:42.331Z,95709.91
2023-05-18T14:46:25.093Z,95704.66
2023-05-18T14:50:08.877Z,95715.06
2023-05-18T14:53:52.985Z,95709.19
2023-05-18T14:57:35.760Z,95714.69
2023-05-18T15:01:18.600Z,95717.03
2023-05-18T15:05:01.301Z,95716.66
2023-05-18T15:08:45.246Z,95722.19
2023-05-18T15:12:29.342Z,95709.41
2023-05-18T15:16:12.901Z,95715.16
2023-05-18T15:19:55.614Z,95718.28
2023-05-18T15:23:38.407Z,95710.59
2023-05-18T15:27:21.161Z,95712.44
2023-05-18T15:31:05.266Z,95713.63
2023-05-18T15:34:48.068Z,95712.44
2023-05-18T15:38:30.841Z,95717.94
2023-05-18T15:42:13.582Z,95718.56
2023-05-18T15:45:56.393Z,95720.22
2023-05-18T15:49:40.465Z,95722.66
2023-05-18T15:53:23.142Z,95715.75
2023-05-18T15:57:06.525Z,95713.69
2023-05-18T16:00:49.387Z,95709.22
2023-05-18T16:04:32.096Z,95712.72
2023-05-18T16:08:18.061Z,95708.47
2023-05-18T16:12:00.862Z,95711.94
2023-05-18T16:15:43.664Z,95718.47
2023-05-18T16:19:26.566Z,95719.91
2023-05-18T16:23:09.303Z,95714.25
2023-05-18T16:26:53.415Z,95714.25
2023-05-18T16:30:36.191Z,95717.06
2023-05-18T16:34:18.908Z,95717.47
2023-05-18T16:38:01.643Z,95716.25
2023-05-18T16:41:44.368Z,95726.41
2023-05-18T16:45:28.507Z,95721.56
2023-05-18T16:49:11.228Z,95726.03
2023-05-18T16:52:53.958Z,95735.38
2023-05-18T16:56:36.821Z,95743.28
2023-05-18T17:00:20.096Z,95746.34
2023-05-18T17:04:04.326Z,95743.09
2023-05-18T17:07:47.438Z,95750.41
2023-05-18T17:11:30.112Z,95740.28
2023-05-18T17:15:13.449Z,95754.06
2023-05-18T17:18:57.596Z,95743.53
2023-05-18T17:22:41.770Z,95746.75
2023-05-18T17:26:25.449Z,95743.09
2023-05-18T17:30:09.430Z,95739.03
2023-05-18T17:33:52.179Z,95737.41
2023-05-18T17:37:34.920Z,95750.84
2023-05-18T17:41:21.377Z,95742.28
2023-05-18T17:45:04.394Z,95744.34
2023-05-18T17:48:47.535Z,95744.53
2023-05-18T17:52:30.237Z,95741.28
2023-05-18T17:56:13.201Z,95740.50
2023-05-18T17:59:57.261Z,95743.16
2023-05-18T18:03:40.052Z,95742.13
2023-05-18T18:07:23.320Z,95747.59
2023-05-18T18:11:09.089Z,95757.75
2023-05-18T18:14:53.310Z,95749.22
2023-05-18T18:18:38.347Z,95755.31
2023-05-18T18:22:22.522Z,95761.41
2023-05-18T18:26:06.062Z,95770.72
2023-05-18T18:29:50.653Z,95758.56
2023-05-18T18:33:33.601Z,95752.06
2023-05-18T18:37:18.393Z,95740.31
2023-05-18T18:41:04.420Z,95747.22
2023-05-18T18:44:47.189Z,95756.13
2023-05-18T18:48:30.050Z,95751.25
2023-05-18T18:52:14.203Z,95758.16
2023-05-18T18:55:59.794Z,95751.25
2023-05-18T18:59:42.699Z,95763.03
2023-05-18T19:03:26.502Z,95764.03
2023-05-18T19:07:11.757Z,95765.06
2023-05-18T19:10:54.449Z,95769.53
2023-05-18T19:14:38.508Z,95772.38
2023-05-18T19:18:21.243Z,95783.94
2023-05-18T19:22:04.092Z,95785.34
2023-05-18T19:25:46.875Z,95785.97
2023-05-18T19:29:29.516Z,95799.16
2023-05-18T19:33:13.699Z,95787.78
2023-05-18T19:36:56.423Z,95804.44
2023-05-18T19:40:39.157Z,95798.34
2023-05-18T19:44:21.937Z,95801.19
2023-05-18T19:48:04.935Z,95809.31
2023-05-18T19:51:49.209Z,95804.22
2023-05-18T19:55:32.224Z,95801.19
2023-05-18T19:59:15.169Z,95802.00
2023-05-18T20:02:57.879Z,95813.34
2023-05-18T20:06:40.624Z,95817.81
2023-05-18T20:10:24.813Z,95815.38
2023-05-18T20:14:07.580Z,95815.34
2023-05-18T20:17:50.589Z,95812.91
2023-05-18T20:21:34.009Z,95815.34
2023-05-18T20:25:16.920Z,95814.31
2023-05-18T20:29:00.963Z,95810.88
2023-05-18T20:32:43.771Z,95811.28
2023-05-18T20:36:27.042Z,95812.69
2023-05-18T20:40:10.628Z,95809.44
2023-05-18T20:43:53.686Z,95803.97
2023-05-18T20:47:37.787Z,95812.47
2023-05-18T20:51:23.357Z,95814.28
2023-05-18T20:55:07.316Z,95813.25
2023-05-18T20:58:50.404Z,95820.91
2023-05-18T21:02:33.524Z,95821.75
2023-05-18T21:06:17.660Z,95805.94
2023-05-18T21:10:01.642Z,95801.44
2023-05-18T21:13:44.384Z,95799.81
2023-05-18T21:17:27.253Z,95806.66
2023-05-18T21:21:10.196Z,95815.97
2023-05-18T21:24:54.327Z,95810.66
2023-05-18T21:28:37.017Z,95805.00
2023-05-18T21:32:20.139Z,95807.81
2023-05-18T21:36:04.207Z,95808.41
2023-05-18T21:39:47.026Z,95807.56
2023-05-18T21:43:31.219Z,95796.81
2023-05-18T21:47:14.017Z,95797.19
2023-05-18T21:50:56.690Z,95804.66
2023-05-18T21:54:39.489Z,95784.22
2023-05-18T21:58:22.210Z,95791.09
2023-05-18T22:02:06.529Z,95799.19
2023-05-18T22:05:49.207Z,95786.84
2023-05-18T22:09:31.897Z,95785.84
2023-05-18T22:13:14.696Z,95786.22
2023-05-18T22:16:57.443Z,95786.63
2023-05-18T22:20:41.570Z,95783.78
2023-05-18T22:24:24.411Z,95775.69
2023-05-18T22:28:07.124Z,95775.91
2023-05-18T22:31:49.942Z,95767.56
2023-05-18T22:35:32.873Z,95764.94
2023-05-18T22:39:18.113Z,95776.47
2023-05-18T22:43:00.777Z,95769.13
2023-05-18T22:46:43.781Z,95773.31
2023-05-18T22:50:27.325Z,95772.28
2023-05-18T22:54:10.156Z,95779.09
2023-05-18T22:57:54.245Z,95770.22
2023-05-18T23:01:37.687Z,95773.03
2023-05-18T23:05:20.992Z,95769.78
2023-05-18T23:09:04.010Z,95755.19
2023-05-18T23:12:48.411Z,95759.22
2023-05-18T23:16:32.627Z,95766.88
2023-05-18T23:20:15.430Z,95759.59
2023-05-18T23:24:00.142Z,95765.63
2023-05-18T23:27:42.916Z,95768.66
2023-05-18T23:31:26.043Z,95755.50
2023-05-18T23:35:13.970Z,95753.50
2023-05-18T23:39:02.032Z,95743.22
2023-05-18T23:42:45.400Z,95759.00
2023-05-18T23:46:29.079Z,95758.38
2023-05-18T23:50:15.782Z,95753.94
2023-05-18T23:53:58.884Z,95743.97
2023-05-18T23:57:42.111Z,95741.75
